createdAt,value
2023-04-05T00:02:07.273Z,5.38
2023-04-05T00:04:34.152Z,5.78
2023-04-05T00:07:01.765Z,5.65
2023-04-05T00:09:28.504Z,6.80
2023-04-05T00:11:55.252Z,6.75
2023-04-05T00:14:21.981Z,8.35
2023-04-05T00:16:48.734Z,7.28
2023-04-05T00:19:15.440Z,7.57
2023-04-05T00:21:42.130Z,6.80
2023-04-05T00:24:08.923Z,5.78
2023-04-05T00:26:38.019Z,6.25
2023-04-05T00:29:04.780Z,5.53
2023-04-05T00:31:31.530Z,4.78
2023-04-05T00:33:58.486Z,5.43
2023-04-05T00:36:26.304Z,4.60
2023-04-05T00:38:53.014Z,5.82
2023-04-05T00:41:20.737Z,4.25
2023-04-05T00:43:48.428Z,4.72
2023-04-05T00:46:15.389Z,5.05
2023-04-05T00:48:42.100Z,4.90
2023-04-05T00:51:12.672Z,4.63
2023-04-05T00:53:43.381Z,3.80
2023-04-05T00:56:12.639Z,4.40
2023-04-05T00:58:39.551Z,4.22
2023-04-05T01:01:23.792Z,4.80
2023-04-05T01:03:53.814Z,4.72
2023-04-05T01:06:52.360Z,4.68
2023-04-05T01:09:58.624Z,5.00
2023-04-05T01:12:32.894Z,4.90
2023-04-05T01:15:01.264Z,4.70
2023-04-05T01:17:32.249Z,4.72
2023-04-05T01:20:01.484Z,5.18
2023-04-05T01:22:48.289Z,4.75
2023-04-05T01:25:37.746Z,4.57
2023-04-05T01:28:18.592Z,4.97
2023-04-05T01:30:54.115Z,5.20
2023-04-05T01:33:32.457Z,4.82
2023-04-05T01:36:02.017Z,5.22
2023-04-05T01:38:29.644Z,5.40
2023-04-05T01:40:56.817Z,5.18
2023-04-05T01:43:23.857Z,4.97
2023-04-05T01:45:50.537Z,4.95
2023-04-05T01:48:17.374Z,3.88
2023-04-05T01:50:44.497Z,4.43
2023-04-05T01:53:11.248Z,4.30
2023-04-05T01:55:38.187Z,4.15
2023-04-05T01:58:04.983Z,3.67
2023-04-05T02:00:31.841Z,3.88
2023-04-05T02:02:58.666Z,3.97
2023-04-05T02:05:25.570Z,3.65
2023-04-05T02:07:52.302Z,3.92
2023-04-05T02:10:19.581Z,4.20
2023-04-05T02:12:46.358Z,4.40
2023-04-05T02:15:14.245Z,4.10
2023-04-05T02:17:42.618Z,3.78
2023-04-05T02:20:10.640Z,4.70
2023-04-05T02:22:38.833Z,4.60
2023-04-05T02:25:08.377Z,4.85
2023-04-05T02:27:35.386Z,4.93
2023-04-05T02:30:04.145Z,4.82
2023-04-05T02:32:33.141Z,4.75
2023-04-05T02:35:02.928Z,5.40
2023-04-05T02:37:29.612Z,4.97
2023-04-05T02:39:56.399Z,4.68
2023-04-05T02:42:23.088Z,5.20
2023-04-05T02:44:51.263Z,4.95
2023-04-05T02:47:18.011Z,4.75
2023-04-05T02:49:44.769Z,4.55
2023-04-05T02:52:11.475Z,5.07
2023-04-05T02:54:38.165Z,4.90
2023-04-05T02:57:04.995Z,4.13
2023-04-05T02:59:32.292Z,4.35
2023-04-05T03:01:59.032Z,4.65
2023-04-05T03:04:26.321Z,4.82
2023-04-05T03:06:53.207Z,4.45
2023-04-05T03:09:19.947Z,4.70
2023-04-05T03:11:47.189Z,5.00
2023-04-05T03:14:13.872Z,4.93
2023-04-05T03:16:40.662Z,5.57
2023-04-05T03:19:07.587Z,5.10
2023-04-05T03:21:34.395Z,5.22
2023-04-05T03:24:02.417Z,5.07
2023-04-05T03:26:29.171Z,5.72
2023-04-05T03:28:55.886Z,5.10
2023-04-05T03:31:22.654Z,5.35
2023-04-05T03:33:49.395Z,4.82
2023-04-05T03:36:16.753Z,5.95
2023-04-05T03:38:45.027Z,5.18
2023-04-05T03:41:11.725Z,5.15
2023-04-05T03:43:38.498Z,5.45
2023-04-05T03:46:05.922Z,5.63
2023-04-05T03:48:34.955Z,5.82
2023-04-05T03:51:02.039Z,5.38
2023-04-05T03:53:28.735Z,5.32
2023-04-05T03:55:55.657Z,4.93
2023-04-05T03:58:22.451Z,5.68
2023-04-05T04:00:49.111Z,5.47
2023-04-05T04:03:15.883Z,5.60
2023-04-05T04:05:44.006Z,6.03
2023-04-05T04:08:12.540Z,5.78
2023-04-05T04:10:40.409Z,5.75
2023-04-05T04:13:07.395Z,6.07
2023-04-05T04:15:35.313Z,6.00
2023-04-05T04:18:02.139Z,5.32
2023-04-05T04:20:30.396Z,6.13
2023-04-05T04:22:58.543Z,6.10
2023-04-05T04:25:25.269Z,6.60
2023-04-05T04:27:52.353Z,6.55
2023-04-05T04:30:19.487Z,6.68
2023-04-05T04:32:46.213Z,7.07
2023-04-05T04:35:15.042Z,6.90
2023-04-05T04:37:42.330Z,7.13
2023-04-05T04:40:11.071Z,6.93
2023-04-05T04:42:39.041Z,6.90
2023-04-05T04:45:06.296Z,7.20
2023-04-05T04:47:34.561Z,7.25
2023-04-05T04:50:12.819Z,6.95
2023-04-05T04:52:40.951Z,6.75
2023-04-05T04:55:09.663Z,7.35
2023-04-05T04:57:37.352Z,6.35
2023-04-05T05:00:04.471Z,7.45
2023-04-05T05:02:33.895Z,6.95
2023-04-05T05:05:01.884Z,7.45
2023-04-05T05:07:33.047Z,7.10
2023-04-05T05:10:07.531Z,6.68
2023-04-05T05:12:39.035Z,6.93
2023-04-05T05:15:07.875Z,7.00
2023-04-05T05:17:35.821Z,6.50
2023-04-05T05:20:04.489Z,8.20
2023-04-05T05:22:31.657Z,6.55
2023-04-05T05:24:59.448Z,6.63
2023-04-05T05:27:26.187Z,5.63
2023-04-05T05:29:54.973Z,5.70
2023-04-05T05:32:25.356Z,5.30
2023-04-05T05:35:02.996Z,6.00
2023-04-05T05:37:33.469Z,6.43
2023-04-05T05:40:06.767Z,5.93
2023-04-05T05:42:36.345Z,5.93
2023-04-05T05:45:05.202Z,6.38
2023-04-05T05:47:40.913Z,6.65
2023-04-05T05:50:13.073Z,6.13
2023-04-05T05:52:43.383Z,5.50
2023-04-05T05:55:11.650Z,5.75
2023-04-05T05:57:39.999Z,5.93
2023-04-05T06:00:09.438Z,7.00
2023-04-05T06:02:36.909Z,6.45
2023-04-05T06:05:06.338Z,5.60
2023-04-05T06:07:36.503Z,5.93
2023-04-05T06:10:08.416Z,5.53
2023-04-05T06:12:40.203Z,5.60
2023-04-05T06:15:10.032Z,4.43
2023-04-05T06:17:38.976Z,5.00
2023-04-05T06:20:10.720Z,5.43
2023-04-05T06:22:48.965Z,5.60
2023-04-05T06:25:18.564Z,4.57
2023-04-05T06:27:45.577Z,5.15
2023-04-05T06:30:14.146Z,5.35
2023-04-05T06:32:44.176Z,4.63
2023-04-05T06:35:12.585Z,5.03
2023-04-05T06:37:39.498Z,4.78
2023-04-05T06:40:07.110Z,5.40
2023-04-05T06:42:33.992Z,5.30
2023-04-05T06:45:01.178Z,5.25
2023-04-05T06:47:27.942Z,6.03
2023-04-05T06:49:55.080Z,6.28
2023-04-05T06:52:22.104Z,6.15
2023-04-05T06:54:48.900Z,5.03
2023-04-05T06:57:15.741Z,6.45
2023-04-05T06:59:43.845Z,6.60
2023-04-05T07:02:12.547Z,6.90
2023-04-05T07:04:40.895Z,7.53
2023-04-05T07:07:09.808Z,7.32
2023-04-05T07:09:40.040Z,6.85
2023-04-05T07:12:09.144Z,7.40
2023-04-05T07:14:38.621Z,7.07
2023-04-05T07:17:09.440Z,7.65
2023-04-05T07:19:38.762Z,7.80
2023-04-05T07:22:05.513Z,6.95
2023-04-05T07:24:32.557Z,6.80
2023-04-05T07:26:59.860Z,7.47
2023-04-05T07:29:27.728Z,7.60
2023-04-05T07:31:54.592Z,8.98
2023-04-05T07:34:21.938Z,7.60
2023-04-05T07:36:49.183Z,7.90
2023-04-05T07:39:18.624Z,7.05
2023-04-05T07:41:45.610Z,6.80
2023-04-05T07:44:12.471Z,7.65
2023-04-05T07:46:39.588Z,6.88
2023-04-05T07:49:06.475Z,6.95
2023-04-05T07:51:33.354Z,6.88
2023-04-05T07:54:01.876Z,7.15
2023-04-05T07:56:31.618Z,7.60
2023-04-05T07:59:00.009Z,7.60
2023-04-05T08:01:26.800Z,8.93
2023-04-05T08:03:57.064Z,13.25
2023-04-05T08:06:25.281Z,8.65
2023-04-05T08:08:52.284Z,6.60
2023-04-05T08:11:19.259Z,6.00
2023-04-05T08:13:46.461Z,6.55
2023-04-05T08:16:14.396Z,6.18
2023-04-05T08:18:44.425Z,6.57
2023-04-05T08:21:14.182Z,6.40
2023-04-05T08:23:41.353Z,7.38
2023-04-05T08:26:09.736Z,8.10
2023-04-05T08:28:36.795Z,6.10
2023-04-05T08:31:05.151Z,6.40
2023-04-05T08:33:35.498Z,5.88
2023-04-05T08:36:08.081Z,5.70
2023-04-05T08:38:35.321Z,5.43
2023-04-05T08:41:17.744Z,6.38
2023-04-05T08:43:55.541Z,5.90
2023-04-05T08:46:23.083Z,6.78
2023-04-05T08:48:50.606Z,5.93
2023-04-05T08:51:26.246Z,6.07
2023-04-05T08:53:54.276Z,8.43
2023-04-05T08:56:26.858Z,4.78
2023-04-05T08:59:13.029Z,4.88
2023-04-05T09:01:46.518Z,5.82
2023-04-05T09:04:19.010Z,6.93
2023-04-05T09:06:47.097Z,5.40
2023-04-05T09:09:15.208Z,5.57
2023-04-05T09:11:44.867Z,5.88
2023-04-05T09:14:12.299Z,5.07
2023-04-05T09:16:41.764Z,5.22
2023-04-05T09:19:10.961Z,7.13
2023-04-05T09:22:04.119Z,6.68
2023-04-05T09:24:44.302Z,5.90
2023-04-05T09:27:16.591Z,6.10
2023-04-05T09:29:48.753Z,5.03
2023-04-05T09:32:18.532Z,6.72
2023-04-05T09:34:48.054Z,5.18
2023-04-05T09:37:20.536Z,5.13
2023-04-05T09:39:49.127Z,4.40
2023-04-05T09:42:17.796Z,4.72
2023-04-05T09:44:56.011Z,5.10
2023-04-05T09:47:28.065Z,6.05
2023-04-05T09:49:59.119Z,5.43
2023-04-05T09:52:32.454Z,4.35
2023-04-05T09:55:04.030Z,3.97
2023-04-05T09:57:36.882Z,5.25
2023-04-05T10:00:07.164Z,4.45
2023-04-05T10:02:41.767Z,6.00
2023-04-05T10:07:40.050Z,4.05
2023-04-05T10:10:12.884Z,3.75
2023-04-05T10:12:41.444Z,3.92
2023-04-05T10:15:09.099Z,5.13
2023-04-05T10:17:45.825Z,5.22
2023-04-05T10:20:17.186Z,4.35
2023-04-05T10:23:00.600Z,3.72
2023-04-05T10:25:53.396Z,4.28
2023-04-05T10:28:36.364Z,4.32
2023-04-05T10:31:24.200Z,4.70
2023-04-05T10:34:05.363Z,4.45
2023-04-05T10:37:01.241Z,4.40
2023-04-05T10:39:36.345Z,6.70
2023-04-05T10:42:10.048Z,4.03
2023-04-05T10:44:37.412Z,4.40
2023-04-05T10:47:07.384Z,4.60
2023-04-05T10:49:40.051Z,4.50
2023-04-05T10:52:07.237Z,5.68
2023-04-05T10:54:35.753Z,4.90
2023-04-05T10:57:09.701Z,5.72
2023-04-05T10:59:44.458Z,5.03
2023-04-05T11:02:13.958Z,4.60
2023-04-05T11:04:42.771Z,4.22
2023-04-05T11:07:55.494Z,4.53
2023-04-05T11:10:27.496Z,4.68
2023-04-05T11:13:00.983Z,4.50
2023-04-05T11:15:32.142Z,3.83
2023-04-05T11:18:18.120Z,4.80
2023-04-05T11:20:54.400Z,4.38
2023-04-05T11:23:32.707Z,3.90
2023-04-05T11:26:19.132Z,4.40
2023-04-05T11:28:58.870Z,3.88
2023-04-05T11:31:49.750Z,4.40
2023-04-05T11:34:25.467Z,4.22
2023-04-05T11:36:58.407Z,4.60
2023-04-05T11:39:26.577Z,4.80
2023-04-05T11:42:03.940Z,4.90
2023-04-05T11:44:47.840Z,4.28
2023-04-05T11:47:20.193Z,3.58
2023-04-05T11:49:50.615Z,4.10
2023-04-05T11:52:20.458Z,3.88
2023-04-05T11:54:48.058Z,4.03
2023-04-05T11:57:24.901Z,4.18
2023-04-05T11:59:54.499Z,4.18
2023-04-05T12:02:26.232Z,4.15
2023-04-05T12:05:01.852Z,4.30
2023-04-05T12:07:32.749Z,4.07
2023-04-05T12:10:03.816Z,4.00
2023-04-05T12:12:49.063Z,4.45
2023-04-05T12:15:24.643Z,4.60
2023-04-05T12:17:58.301Z,4.85
2023-04-05T12:20:26.261Z,4.00
2023-04-05T12:25:08.456Z,3.60
2023-04-05T12:26:07.286Z,4.53
2023-04-05T12:28:50.706Z,3.58
2023-04-05T12:31:17.765Z,4.35
2023-04-05T12:33:44.820Z,3.60
2023-04-05T12:36:14.781Z,4.00
2023-04-05T12:38:43.474Z,4.00
2023-04-05T12:41:10.532Z,4.68
2023-04-05T12:43:42.461Z,5.35
2023-04-05T12:46:17.501Z,4.30
2023-04-05T12:48:49.703Z,4.10
2023-04-05T12:51:17.286Z,4.30
2023-04-05T12:53:47.765Z,4.35
2023-04-05T12:56:15.770Z,4.03
2023-04-05T12:58:43.189Z,4.38
2023-04-05T13:01:12.268Z,4.03
2023-04-05T13:03:39.225Z,3.72
2023-04-05T13:06:07.467Z,3.63
2023-04-05T13:08:34.266Z,3.70
2023-04-05T13:11:01.725Z,3.67
2023-04-05T13:13:28.829Z,4.00
2023-04-05T13:15:55.620Z,3.60
2023-04-05T13:18:22.469Z,4.95
2023-04-05T13:20:49.427Z,4.10
2023-04-05T13:23:16.733Z,3.70
2023-04-05T13:25:44.741Z,4.22
2023-04-05T13:28:11.642Z,3.70
2023-04-05T13:30:38.504Z,3.95
2023-04-05T13:33:05.626Z,3.80
2023-04-05T13:35:32.742Z,4.53
2023-04-05T13:38:02.468Z,5.00
2023-04-05T13:40:32.762Z,3.55
2023-04-05T13:42:59.697Z,4.28
2023-04-05T13:45:29.754Z,4.65
2023-04-05T13:47:58.497Z,4.35
2023-04-05T13:50:25.605Z,3.90
2023-04-05T13:52:53.994Z,3.97
2023-04-05T13:55:23.473Z,3.97
2023-04-05T13:57:51.445Z,4.15
2023-04-05T14:00:19.125Z,4.05
2023-04-05T14:02:48.197Z,3.78
2023-04-05T14:05:17.263Z,3.78
2023-04-05T14:07:47.895Z,4.22
2023-04-05T14:10:21.833Z,4.35
2023-04-05T14:12:50.026Z,4.25
2023-04-05T14:15:20.483Z,4.00
2023-04-05T14:17:48.878Z,3.58
2023-04-05T14:20:18.621Z,3.60
2023-04-05T14:22:46.261Z,3.85
2023-04-05T14:25:16.209Z,3.60
2023-04-05T14:27:44.760Z,3.97
2023-04-05T14:30:13.473Z,4.00
2023-04-05T14:32:40.522Z,3.38
2023-04-05T14:35:09.243Z,3.50
2023-04-05T14:37:39.089Z,3.67
2023-04-05T14:40:07.605Z,3.85
2023-04-05T14:42:47.694Z,4.38
2023-04-05T14:45:15.787Z,3.92
2023-04-05T14:47:43.366Z,3.30
2023-04-05T14:50:12.045Z,3.60
2023-04-05T14:52:40.017Z,3.75
2023-04-05T14:55:08.705Z,3.90
2023-04-05T14:57:36.275Z,3.40
2023-04-05T15:00:05.175Z,3.80
2023-04-05T15:02:32.108Z,4.30
2023-04-05T15:04:59.061Z,9.30
2023-04-05T15:07:28.860Z,6.60
2023-04-05T15:09:55.968Z,4.20
2023-04-05T15:12:23.033Z,4.10
2023-04-05T15:14:50.387Z,3.80
2023-04-05T15:17:17.504Z,3.80
2023-04-05T15:19:44.342Z,3.30
2023-04-05T15:22:11.247Z,3.90
2023-04-05T15:24:38.835Z,3.70
2023-04-05T15:27:09.293Z,4.10
2023-04-05T15:29:36.227Z,4.22
2023-04-05T15:32:03.575Z,4.35
2023-04-05T15:34:31.268Z,4.57
2023-04-05T15:36:58.133Z,4.28
2023-04-05T15:39:25.138Z,3.70
2023-04-05T15:41:52.117Z,4.28
2023-04-05T15:44:19.253Z,4.18
2023-04-05T15:46:46.141Z,4.60
2023-04-05T15:49:16.992Z,4.93
2023-04-05T15:51:45.730Z,3.92
2023-04-05T15:54:12.539Z,3.80
2023-04-05T15:56:39.375Z,4.10
2023-04-05T15:59:06.349Z,4.32
2023-04-05T16:01:35.222Z,4.35
2023-04-05T16:04:03.519Z,4.70
2023-04-05T16:06:32.488Z,3.63
2023-04-05T16:08:59.829Z,4.20
2023-04-05T16:11:27.675Z,3.90
2023-04-05T16:13:54.517Z,3.90
2023-04-05T16:16:32.540Z,3.90
2023-04-05T16:19:06.436Z,3.90
2023-04-05T16:21:34.500Z,4.30
2023-04-05T16:24:02.529Z,4.30
2023-04-05T16:26:29.902Z,5.00
2023-04-05T16:28:56.823Z,4.50
2023-04-05T16:31:23.922Z,5.82
2023-04-05T16:33:50.757Z,5.35
2023-04-05T16:36:17.844Z,5.03
2023-04-05T16:38:46.796Z,5.00
2023-04-05T16:41:14.835Z,5.18
2023-04-05T16:43:41.597Z,5.25
2023-04-05T16:46:08.425Z,4.50
2023-04-05T16:48:35.241Z,4.30
2023-04-05T16:51:02.056Z,4.70
2023-04-05T16:53:29.614Z,4.75
2023-04-05T16:55:56.758Z,4.47
2023-04-05T16:58:23.656Z,4.40
2023-04-05T17:00:50.636Z,9.25
2023-04-05T17:03:17.586Z,5.40
2023-04-05T17:05:44.616Z,4.97
2023-04-05T17:08:12.961Z,4.70
2023-04-05T17:10:39.749Z,6.03
2023-04-05T17:13:07.961Z,6.93
2023-04-05T17:15:34.826Z,5.47
2023-04-05T17:18:03.174Z,5.78
2023-04-05T17:20:31.131Z,5.65
2023-04-05T17:22:59.375Z,5.20
2023-04-05T17:25:28.820Z,4.85
2023-04-05T17:27:56.186Z,4.70
2023-04-05T17:30:25.609Z,5.55
2023-04-05T17:32:52.579Z,5.50
2023-04-05T17:35:21.674Z,6.28
2023-04-05T17:37:49.778Z,5.00
2023-04-05T17:40:17.028Z,13.32
2023-04-05T17:42:45.130Z,33.05
2023-04-05T17:45:12.047Z,7.95
2023-04-05T17:47:43.031Z,8.05
2023-04-05T17:50:11.268Z,6.28
2023-04-05T17:52:41.169Z,6.03
2023-04-05T17:55:08.870Z,5.50
2023-04-05T17:57:36.919Z,5.53
2023-04-05T18:00:08.658Z,6.03
2023-04-05T18:02:35.618Z,5.80
2023-04-05T18:05:07.075Z,6.00
2023-04-05T18:07:41.244Z,6.22
2023-04-05T18:10:08.825Z,6.18
2023-04-05T18:12:36.673Z,5.95
2023-04-05T18:15:03.577Z,6.88
2023-04-05T18:17:30.985Z,6.63
2023-04-05T18:19:58.992Z,7.57
2023-04-05T18:22:29.803Z,7.20
2023-04-05T18:24:56.605Z,6.95
2023-04-05T18:27:23.345Z,6.85
2023-04-05T18:29:50.166Z,6.57
2023-04-05T18:32:17.232Z,6.78
2023-04-05T18:34:44.147Z,6.75
2023-04-05T18:37:11.149Z,7.32
2023-04-05T18:39:39.217Z,7.75
2023-04-05T18:42:07.779Z,7.63
2023-04-05T18:44:34.832Z,8.15
2023-04-05T18:47:01.609Z,6.97
2023-04-05T18:49:28.325Z,7.32
2023-04-05T18:51:55.114Z,8.00
2023-04-05T18:54:21.897Z,8.88
2023-04-05T18:56:48.662Z,9.07
2023-04-05T18:59:15.525Z,9.57
2023-04-05T19:01:42.409Z,8.27
2023-04-05T19:04:09.621Z,8.75
2023-04-05T19:06:36.659Z,9.23
2023-04-05T19:09:03.597Z,8.73
2023-04-05T19:11:30.523Z,7.82
2023-04-05T19:13:58.752Z,8.48
2023-04-05T19:16:25.562Z,7.70
2023-04-05T19:18:52.635Z,7.85
2023-04-05T19:21:19.422Z,8.43
2023-04-05T19:23:46.226Z,8.00
2023-04-05T19:26:14.412Z,9.30
2023-04-05T19:28:41.257Z,8.50
2023-04-05T19:31:10.045Z,8.73
2023-04-05T19:33:37.073Z,8.13
2023-04-05T19:36:05.414Z,8.00
2023-04-05T19:38:37.548Z,8.23
2023-04-05T19:41:06.695Z,8.52
2023-04-05T19:43:43.856Z,8.10
2023-04-05T19:46:16.618Z,9.25
2023-04-05T19:48:46.476Z,8.63
2023-04-05T19:51:15.244Z,8.43
2023-04-05T19:53:50.448Z,8.52
2023-04-05T19:56:23.387Z,7.95
2023-04-05T19:58:56.320Z,7.75
2023-04-05T20:01:33.050Z,7.72
2023-04-05T20:04:01.035Z,7.18
2023-04-05T20:06:33.159Z,7.68
2023-04-05T20:09:04.502Z,7.85
2023-04-05T20:11:31.487Z,7.90
2023-04-05T20:13:58.791Z,7.75
2023-04-05T20:16:34.075Z,7.43
2023-04-05T20:19:06.278Z,7.70
2023-04-05T20:21:34.130Z,7.25
2023-04-05T20:24:01.786Z,8.35
2023-04-05T20:26:32.642Z,10.35
2023-04-05T20:29:02.391Z,19.45
2023-04-05T20:31:33.021Z,8.80
2023-04-05T20:34:19.659Z,8.00
2023-04-05T20:36:51.818Z,7.53
2023-04-05T20:39:19.139Z,7.82
2023-04-05T20:41:46.494Z,8.48
2023-04-05T20:44:13.372Z,7.88
2023-04-05T20:46:40.225Z,8.65
2023-04-05T20:49:07.500Z,8.35
2023-04-05T20:51:34.617Z,8.20
2023-04-05T20:54:01.351Z,8.15
2023-04-05T20:56:28.218Z,8.25
2023-04-05T20:58:55.054Z,8.80
2023-04-05T21:01:21.910Z,8.68
2023-04-05T21:03:49.095Z,7.95
2023-04-05T21:06:15.878Z,8.73
2023-04-05T21:08:42.594Z,8.85
2023-04-05T21:11:10.612Z,8.98
2023-04-05T21:13:37.991Z,8.80
2023-04-05T21:16:06.645Z,9.57
2023-04-05T21:18:34.781Z,10.15
2023-04-05T21:21:03.428Z,10.43
2023-04-05T21:23:33.472Z,8.60
2023-04-05T21:26:02.318Z,9.10
2023-04-05T21:28:28.991Z,9.75
2023-04-05T21:30:55.833Z,9.65
2023-04-05T21:33:22.867Z,10.45
2023-04-05T21:35:50.047Z,9.48
2023-04-05T21:38:17.055Z,10.25
2023-04-05T21:40:43.829Z,9.90
2023-04-05T21:43:11.573Z,9.23
2023-04-05T21:45:38.418Z,10.40
2023-04-05T21:48:05.452Z,11.35
2023-04-05T21:50:32.323Z,11.55
2023-04-05T21:52:59.293Z,10.90
2023-04-05T21:55:26.210Z,10.75
2023-04-05T21:57:52.928Z,11.00
2023-04-05T22:00:20.040Z,11.15
2023-04-05T22:02:46.913Z,10.65
2023-04-05T22:05:25.629Z,10.50
2023-04-05T22:08:01.533Z,11.02
2023-04-05T22:10:28.729Z,11.38
2023-04-05T22:12:55.586Z,11.88
2023-04-05T22:15:22.348Z,11.10
2023-04-05T22:17:49.130Z,12.75
2023-04-05T22:20:16.145Z,12.55
2023-04-05T22:22:43.165Z,12.60
2023-04-05T22:25:11.149Z,12.20
2023-04-05T22:27:39.025Z,11.38
2023-04-05T22:30:06.497Z,11.00
2023-04-05T22:32:33.371Z,11.25
2023-04-05T22:35:00.215Z,10.57
2023-04-05T22:37:27.370Z,10.60
2023-04-05T22:39:54.220Z,11.30
2023-04-05T22:42:20.991Z,11.27
2023-04-05T22:44:47.727Z,10.73
2023-04-05T22:47:14.492Z,10.57
2023-04-05T22:49:41.355Z,11.32
2023-04-05T22:52:08.080Z,10.30
2023-04-05T22:54:34.835Z,9.75
2023-04-05T22:57:01.616Z,11.52
2023-04-05T22:59:28.422Z,11.43
2023-04-05T23:01:55.385Z,10.40
2023-04-05T23:04:22.261Z,10.98
2023-04-05T23:06:49.046Z,10.27
2023-04-05T23:09:15.831Z,10.07
2023-04-05T23:11:43.752Z,10.55
2023-04-05T23:14:12.057Z,10.57
2023-04-05T23:16:39.638Z,9.98
2023-04-05T23:19:08.063Z,10.45
2023-04-05T23:21:35.380Z,10.85
2023-04-05T23:24:03.500Z,9.63
2023-04-05T23:26:30.265Z,9.90
2023-04-05T23:29:00.733Z,10.88
2023-04-05T23:31:30.949Z,10.77
2023-04-05T23:33:59.104Z,10.45
2023-04-05T23:36:27.443Z,10.13
2023-04-05T23:38:58.591Z,9.43
2023-04-05T23:41:25.761Z,9.52
2023-04-05T23:43:52.957Z,9.50
2023-04-05T23:46:19.806Z,9.63
2023-04-05T23:48:46.666Z,8.73
2023-04-05T23:51:13.621Z,9.35
2023-04-05T23:53:40.408Z,8.63
2023-04-05T23:56:07.564Z,8.68
2023-04-05T23:58:34.330Z,8.43
